sensor_id;sensor_type;location;lat;lon;timestamp;P1;durP1;ratioP1;P2;durP2;ratioP2
78344;SDS011;67620;51.134;6.548;2024-03-22T00:01:45;26.73;;;12.30;;
78344;SDS011;67620;51.134;6.548;2024-03-22T00:06:37;26.23;;;11.45;;
78344;SDS011;67620;51.134;6.548;2024-03-22T00:09:03;24.58;;;11.63;;
78344;SDS011;67620;51.134;6.548;2024-03-22T00:11:29;26.58;;;11.95;;
78344;SDS011;67620;51.134;6.548;2024-03-22T00:13:54;29.60;;;12.82;;
78344;SDS011;67620;51.134;6.548;2024-03-22T00:16:20;27.05;;;12.20;;
78344;SDS011;67620;51.134;6.548;2024-03-22T00:18:46;26.35;;;13.55;;
78344;SDS011;67620;51.134;6.548;2024-03-22T00:21:11;27.45;;;12.63;;
78344;SDS011;67620;51.134;6.548;2024-03-22T00:23:37;30.27;;;12.27;;
78344;SDS011;67620;51.134;6.548;2024-03-22T00:26:02;25.58;;;13.68;;
78344;SDS011;67620;51.134;6.548;2024-03-22T00:28:28;28.27;;;11.38;;
78344;SDS011;67620;51.134;6.548;2024-03-22T00:30:54;28.58;;;13.40;;
78344;SDS011;67620;51.134;6.548;2024-03-22T00:33:19;26.77;;;12.55;;
78344;SDS011;67620;51.134;6.548;2024-03-22T00:35:45;25.45;;;12.18;;
78344;SDS011;67620;51.134;6.548;2024-03-22T00:38:10;29.88;;;13.40;;
78344;SDS011;67620;51.134;6.548;2024-03-22T00:40:36;29.05;;;12.75;;
78344;SDS011;67620;51.134;6.548;2024-03-22T00:43:02;24.67;;;11.55;;
78344;SDS011;67620;51.134;6.548;2024-03-22T00:45:28;22.63;;;11.35;;
78344;SDS011;67620;51.134;6.548;2024-03-22T00:47:53;26.17;;;11.23;;
78344;SDS011;67620;51.134;6.548;2024-03-22T00:50:19;23.67;;;12.27;;
78344;SDS011;67620;51.134;6.548;2024-03-22T00:52:44;25.45;;;11.30;;
78344;SDS011;67620;51.134;6.548;2024-03-22T00:55:10;25.33;;;12.13;;
78344;SDS011;67620;51.134;6.548;2024-03-22T00:57:35;27.40;;;13.10;;
78344;SDS011;67620;51.134;6.548;2024-03-22T01:00:01;23.00;;;10.90;;
78344;SDS011;67620;51.134;6.548;2024-03-22T01:02:27;27.70;;;13.15;;
78344;SDS011;67620;51.134;6.548;2024-03-22T01:04:53;23.60;;;12.52;;
78344;SDS011;67620;51.134;6.548;2024-03-22T01:07:18;23.77;;;12.18;;
78344;SDS011;67620;51.134;6.548;2024-03-22T01:09:44;23.75;;;11.60;;
78344;SDS011;67620;51.134;6.548;2024-03-22T01:12:09;25.20;;;12.43;;
78344;SDS011;67620;51.134;6.548;2024-03-22T01:14:35;24.30;;;11.20;;
78344;SDS011;67620;51.134;6.548;2024-03-22T01:17:01;28.75;;;13.02;;
78344;SDS011;67620;51.134;6.548;2024-03-22T01:19:27;26.85;;;12.93;;
78344;SDS011;67620;51.134;6.548;2024-03-22T01:21:52;22.75;;;11.40;;
78344;SDS011;67620;51.134;6.548;2024-03-22T01:24:18;27.40;;;11.90;;
78344;SDS011;67620;51.134;6.548;2024-03-22T01:26:43;27.85;;;13.07;;
78344;SDS011;67620;51.134;6.548;2024-03-22T01:29:09;26.35;;;11.55;;
78344;SDS011;67620;51.134;6.548;2024-03-22T01:31:34;24.88;;;11.30;;
78344;SDS011;67620;51.134;6.548;2024-03-22T01:34:00;26.98;;;12.23;;
78344;SDS011;67620;51.134;6.548;2024-03-22T01:36:26;27.58;;;13.00;;
78344;SDS011;67620;51.134;6.548;2024-03-22T01:38:51;23.60;;;11.85;;
78344;SDS011;67620;51.134;6.548;2024-03-22T01:41:17;25.45;;;12.60;;
78344;SDS011;67620;51.134;6.548;2024-03-22T01:43:43;26.88;;;12.10;;
78344;SDS011;67620;51.134;6.548;2024-03-22T01:46:08;26.48;;;13.23;;
78344;SDS011;67620;51.134;6.548;2024-03-22T01:48:34;26.35;;;11.75;;
78344;SDS011;67620;51.134;6.548;2024-03-22T01:51:01;23.60;;;11.57;;
78344;SDS011;67620;51.134;6.548;2024-03-22T01:53:28;27.65;;;12.35;;
78344;SDS011;67620;51.134;6.548;2024-03-22T01:55:54;22.90;;;11.55;;
78344;SDS011;67620;51.134;6.548;2024-03-22T01:58:20;22.40;;;11.95;;
78344;SDS011;67620;51.134;6.548;2024-03-22T02:00:46;28.13;;;13.07;;
78344;SDS011;67620;51.134;6.548;2024-03-22T02:03:12;26.23;;;12.68;;
78344;SDS011;67620;51.134;6.548;2024-03-22T02:05:38;21.77;;;10.90;;
78344;SDS011;67620;51.134;6.548;2024-03-22T02:08:04;22.20;;;11.43;;
78344;SDS011;67620;51.134;6.548;2024-03-22T02:10:30;26.40;;;13.07;;
78344;SDS011;67620;51.134;6.548;2024-03-22T02:12:56;26.33;;;11.48;;
78344;SDS011;67620;51.134;6.548;2024-03-22T02:15:22;28.02;;;11.13;;
78344;SDS011;67620;51.134;6.548;2024-03-22T02:17:47;22.85;;;12.60;;
78344;SDS011;67620;51.134;6.548;2024-03-22T02:20:13;21.92;;;10.02;;
78344;SDS011;67620;51.134;6.548;2024-03-22T02:22:38;23.52;;;10.23;;
78344;SDS011;67620;51.134;6.548;2024-03-22T02:25:04;22.58;;;11.30;;
78344;SDS011;67620;51.134;6.548;2024-03-22T02:27:30;22.90;;;11.25;;
78344;SDS011;67620;51.134;6.548;2024-03-22T02:29:55;22.63;;;11.85;;
78344;SDS011;67620;51.134;6.548;2024-03-22T02:32:21;23.35;;;11.90;;
78344;SDS011;67620;51.134;6.548;2024-03-22T02:34:47;26.05;;;11.80;;
78344;SDS011;67620;51.134;6.548;2024-03-22T02:37:12;22.00;;;11.55;;
78344;SDS011;67620;51.134;6.548;2024-03-22T02:39:38;22.38;;;10.88;;
78344;SDS011;67620;51.134;6.548;2024-03-22T02:42:03;20.90;;;11.30;;
78344;SDS011;67620;51.134;6.548;2024-03-22T02:44:29;22.65;;;10.98;;
78344;SDS011;67620;51.134;6.548;2024-03-22T02:46:55;28.77;;;12.65;;
78344;SDS011;67620;51.134;6.548;2024-03-22T02:49:20;29.48;;;11.93;;
78344;SDS011;67620;51.134;6.548;2024-03-22T02:51:46;23.13;;;10.70;;
78344;SDS011;67620;51.134;6.548;2024-03-22T02:54:12;26.27;;;12.73;;
78344;SDS011;67620;51.134;6.548;2024-03-22T02:56:37;23.75;;;11.70;;
78344;SDS011;67620;51.134;6.548;2024-03-22T02:59:03;25.98;;;11.20;;
78344;SDS011;67620;51.134;6.548;2024-03-22T03:01:28;23.00;;;11.40;;
78344;SDS011;67620;51.134;6.548;2024-03-22T03:03:54;23.50;;;11.40;;
78344;SDS011;67620;51.134;6.548;2024-03-22T03:06:19;26.08;;;11.63;;
78344;SDS011;67620;51.134;6.548;2024-03-22T03:08:45;21.50;;;11.57;;
78344;SDS011;67620;51.134;6.548;2024-03-22T03:11:11;25.40;;;12.10;;
78344;SDS011;67620;51.134;6.548;2024-03-22T03:13:38;23.60;;;12.25;;
78344;SDS011;67620;51.134;6.548;2024-03-22T03:16:04;29.48;;;13.40;;
78344;SDS011;67620;51.134;6.548;2024-03-22T03:18:30;28.17;;;13.02;;
78344;SDS011;67620;51.134;6.548;2024-03-22T03:20:55;24.80;;;11.70;;
78344;SDS011;67620;51.134;6.548;2024-03-22T03:23:21;27.98;;;12.63;;
78344;SDS011;67620;51.134;6.548;2024-03-22T03:25:47;28.92;;;13.18;;
78344;SDS011;67620;51.134;6.548;2024-03-22T03:28:13;23.75;;;12.27;;
78344;SDS011;67620;51.134;6.548;2024-03-22T03:30:39;25.75;;;12.63;;
78344;SDS011;67620;51.134;6.548;2024-03-22T03:33:04;26.38;;;11.93;;
78344;SDS011;67620;51.134;6.548;2024-03-22T03:35:30;27.25;;;12.25;;
78344;SDS011;67620;51.134;6.548;2024-03-22T03:37:56;24.73;;;12.48;;
78344;SDS011;67620;51.134;6.548;2024-03-22T03:40:21;26.00;;;13.35;;
78344;SDS011;67620;51.134;6.548;2024-03-22T03:42:49;28.35;;;12.57;;
78344;SDS011;67620;51.134;6.548;2024-03-22T03:45:18;27.38;;;13.23;;
78344;SDS011;67620;51.134;6.548;2024-03-22T03:47:43;21.85;;;13.48;;
78344;SDS011;67620;51.134;6.548;2024-03-22T03:50:09;28.83;;;15.48;;
78344;SDS011;67620;51.134;6.548;2024-03-22T03:52:35;27.10;;;13.13;;
78344;SDS011;67620;51.134;6.548;2024-03-22T03:55:00;24.50;;;13.77;;
78344;SDS011;67620;51.134;6.548;2024-03-22T03:57:26;28.40;;;13.15;;
78344;SDS011;67620;51.134;6.548;2024-03-22T03:59:52;34.03;;;14.82;;
78344;SDS011;67620;51.134;6.548;2024-03-22T04:02:17;31.33;;;14.45;;
78344;SDS011;67620;51.134;6.548;2024-03-22T04:04:43;29.70;;;14.93;;
78344;SDS011;67620;51.134;6.548;2024-03-22T04:07:08;26.90;;;14.30;;
78344;SDS011;67620;51.134;6.548;2024-03-22T04:09:34;28.63;;;14.80;;
78344;SDS011;67620;51.134;6.548;2024-03-22T04:12:00;23.95;;;13.10;;
78344;SDS011;67620;51.134;6.548;2024-03-22T04:14:25;24.90;;;13.40;;
78344;SDS011;67620;51.134;6.548;2024-03-22T04:16:51;24.67;;;13.18;;
78344;SDS011;67620;51.134;6.548;2024-03-22T04:19:19;28.38;;;15.10;;
78344;SDS011;67620;51.134;6.548;2024-03-22T04:21:45;27.83;;;13.55;;
78344;SDS011;67620;51.134;6.548;2024-03-22T04:24:11;25.67;;;14.02;;
78344;SDS011;67620;51.134;6.548;2024-03-22T04:26:36;30.33;;;11.52;;
78344;SDS011;67620;51.134;6.548;2024-03-22T04:29:02;27.08;;;13.55;;
78344;SDS011;67620;51.134;6.548;2024-03-22T04:31:27;25.80;;;13.35;;
78344;SDS011;67620;51.134;6.548;2024-03-22T04:33:53;22.73;;;11.57;;
78344;SDS011;67620;51.134;6.548;2024-03-22T04:36:19;24.98;;;13.63;;
78344;SDS011;67620;51.134;6.548;2024-03-22T04:38:44;24.10;;;13.35;;
78344;SDS011;67620;51.134;6.548;2024-03-22T04:41:10;21.27;;;11.73;;
78344;SDS011;67620;51.134;6.548;2024-03-22T04:43:35;21.30;;;11.70;;
78344;SDS011;67620;51.134;6.548;2024-03-22T04:46:01;17.35;;;11.27;;
78344;SDS011;67620;51.134;6.548;2024-03-22T04:48:27;20.63;;;11.65;;
78344;SDS011;67620;51.134;6.548;2024-03-22T04:50:52;24.85;;;11.52;;
78344;SDS011;67620;51.134;6.548;2024-03-22T04:53:21;21.48;;;12.27;;
78344;SDS011;67620;51.134;6.548;2024-03-22T04:55:47;25.10;;;12.85;;
78344;SDS011;67620;51.134;6.548;2024-03-22T05:00:38;24.90;;;12.13;;
78344;SDS011;67620;51.134;6.548;2024-03-22T05:03:04;21.10;;;10.80;;
78344;SDS011;67620;51.134;6.548;2024-03-22T05:05:30;15.43;;;10.25;;
78344;SDS011;67620;51.134;6.548;2024-03-22T05:07:55;20.85;;;11.23;;
78344;SDS011;67620;51.134;6.548;2024-03-22T05:10:21;20.38;;;10.18;;
78344;SDS011;67620;51.134;6.548;2024-03-22T05:12:47;22.67;;;10.63;;
78344;SDS011;67620;51.134;6.548;2024-03-22T05:15:12;19.38;;;11.13;;
78344;SDS011;67620;51.134;6.548;2024-03-22T05:17:38;22.02;;;11.10;;
78344;SDS011;67620;51.134;6.548;2024-03-22T05:20:05;19.30;;;11.45;;
78344;SDS011;67620;51.134;6.548;2024-03-22T05:22:33;19.00;;;10.90;;
78344;SDS011;67620;51.134;6.548;2024-03-22T05:24:58;24.23;;;11.52;;
78344;SDS011;67620;51.134;6.548;2024-03-22T05:27:24;19.38;;;11.10;;
78344;SDS011;67620;51.134;6.548;2024-03-22T05:29:50;20.45;;;10.55;;
78344;SDS011;67620;51.134;6.548;2024-03-22T05:32:15;18.38;;;10.60;;
78344;SDS011;67620;51.134;6.548;2024-03-22T05:34:41;16.73;;;10.15;;
78344;SDS011;67620;51.134;6.548;2024-03-22T05:37:07;20.17;;;11.32;;
78344;SDS011;67620;51.134;6.548;2024-03-22T05:39:34;19.33;;;10.43;;
78344;SDS011;67620;51.134;6.548;2024-03-22T05:41:59;19.73;;;11.18;;
78344;SDS011;67620;51.134;6.548;2024-03-22T05:44:25;20.00;;;10.68;;
78344;SDS011;67620;51.134;6.548;2024-03-22T05:46:50;19.00;;;10.23;;
78344;SDS011;67620;51.134;6.548;2024-03-22T05:49:16;23.10;;;12.90;;
78344;SDS011;67620;51.134;6.548;2024-03-22T05:51:41;17.90;;;10.50;;
78344;SDS011;67620;51.134;6.548;2024-03-22T05:54:07;24.00;;;11.05;;
78344;SDS011;67620;51.134;6.548;2024-03-22T05:56:33;21.20;;;12.47;;
78344;SDS011;67620;51.134;6.548;2024-03-22T05:58:58;21.90;;;14.02;;
78344;SDS011;67620;51.134;6.548;2024-03-22T06:01:24;20.42;;;14.10;;
78344;SDS011;67620;51.134;6.548;2024-03-22T06:03:50;20.57;;;13.87;;
78344;SDS011;67620;51.134;6.548;2024-03-22T06:06:15;18.13;;;13.35;;
78344;SDS011;67620;51.134;6.548;2024-03-22T06:08:41;21.83;;;14.07;;
78344;SDS011;67620;51.134;6.548;2024-03-22T06:11:08;22.05;;;14.73;;
78344;SDS011;67620;51.134;6.548;2024-03-22T06:13:34;22.30;;;15.57;;
78344;SDS011;67620;51.134;6.548;2024-03-22T06:16:01;23.75;;;15.05;;
78344;SDS011;67620;51.134;6.548;2024-03-22T06:18:27;24.77;;;15.25;;
78344;SDS011;67620;51.134;6.548;2024-03-22T06:20:52;22.43;;;14.80;;
78344;SDS011;67620;51.134;6.548;2024-03-22T06:23:19;23.52;;;15.25;;
78344;SDS011;67620;51.134;6.548;2024-03-22T06:25:52;24.15;;;14.88;;
78344;SDS011;67620;51.134;6.548;2024-03-22T06:28:18;24.75;;;15.75;;
78344;SDS011;67620;51.134;6.548;2024-03-22T06:30:43;23.13;;;15.07;;
78344;SDS011;67620;51.134;6.548;2024-03-22T06:33:09;23.95;;;16.13;;
78344;SDS011;67620;51.134;6.548;2024-03-22T06:35:35;25.03;;;16.67;;
78344;SDS011;67620;51.134;6.548;2024-03-22T06:38:00;24.60;;;15.98;;
78344;SDS011;67620;51.134;6.548;2024-03-22T06:40:27;24.70;;;17.13;;
78344;SDS011;67620;51.134;6.548;2024-03-22T06:42:53;26.20;;;16.98;;
78344;SDS011;67620;51.134;6.548;2024-03-22T06:45:19;28.50;;;17.77;;
78344;SDS011;67620;51.134;6.548;2024-03-22T06:47:45;29.67;;;18.33;;
78344;SDS011;67620;51.134;6.548;2024-03-22T06:50:11;27.87;;;18.03;;
78344;SDS011;67620;51.134;6.548;2024-03-22T06:52:36;25.52;;;16.92;;
78344;SDS011;67620;51.134;6.548;2024-03-22T06:55:02;28.93;;;18.97;;
78344;SDS011;67620;51.134;6.548;2024-03-22T06:57:28;27.90;;;18.52;;
78344;SDS011;67620;51.134;6.548;2024-03-22T06:59:54;28.63;;;18.15;;
78344;SDS011;67620;51.134;6.548;2024-03-22T07:02:20;28.65;;;18.42;;
78344;SDS011;67620;51.134;6.548;2024-03-22T07:04:45;31.07;;;18.80;;
78344;SDS011;67620;51.134;6.548;2024-03-22T07:07:11;29.98;;;19.35;;
78344;SDS011;67620;51.134;6.548;2024-03-22T07:09:37;32.20;;;19.77;;
78344;SDS011;67620;51.134;6.548;2024-03-22T07:12:02;29.30;;;19.33;;
78344;SDS011;67620;51.134;6.548;2024-03-22T07:14:28;32.38;;;20.88;;
78344;SDS011;67620;51.134;6.548;2024-03-22T07:16:54;31.63;;;20.10;;
78344;SDS011;67620;51.134;6.548;2024-03-22T07:19:20;32.33;;;20.50;;
78344;SDS011;67620;51.134;6.548;2024-03-22T07:21:46;31.52;;;21.80;;
78344;SDS011;67620;51.134;6.548;2024-03-22T07:24:12;30.23;;;20.33;;
78344;SDS011;67620;51.134;6.548;2024-03-22T07:26:37;31.48;;;21.95;;
78344;SDS011;67620;51.134;6.548;2024-03-22T07:29:03;33.27;;;20.43;;
78344;SDS011;67620;51.134;6.548;2024-03-22T07:31:29;30.50;;;20.97;;
78344;SDS011;67620;51.134;6.548;2024-03-22T07:33:54;33.38;;;22.60;;
78344;SDS011;67620;51.134;6.548;2024-03-22T07:36:20;35.55;;;21.60;;
78344;SDS011;67620;51.134;6.548;2024-03-22T07:38:46;32.47;;;21.07;;
78344;SDS011;67620;51.134;6.548;2024-03-22T07:41:14;32.35;;;21.40;;
78344;SDS011;67620;51.134;6.548;2024-03-22T07:43:39;31.57;;;20.40;;
78344;SDS011;67620;51.134;6.548;2024-03-22T07:46:05;32.80;;;21.47;;
78344;SDS011;67620;51.134;6.548;2024-03-22T07:48:30;29.30;;;21.53;;
78344;SDS011;67620;51.134;6.548;2024-03-22T07:50:57;32.17;;;21.40;;
78344;SDS011;67620;51.134;6.548;2024-03-22T07:53:26;32.97;;;21.38;;
78344;SDS011;67620;51.134;6.548;2024-03-22T07:55:52;31.90;;;21.33;;
78344;SDS011;67620;51.134;6.548;2024-03-22T07:58:18;31.83;;;21.30;;
78344;SDS011;67620;51.134;6.548;2024-03-22T08:00:44;32.88;;;20.65;;
78344;SDS011;67620;51.134;6.548;2024-03-22T08:03:16;30.23;;;20.93;;
78344;SDS011;67620;51.134;6.548;2024-03-22T08:05:42;32.10;;;21.27;;
78344;SDS011;67620;51.134;6.548;2024-03-22T08:08:08;32.45;;;20.70;;
78344;SDS011;67620;51.134;6.548;2024-03-22T08:10:34;29.10;;;20.37;;
78344;SDS011;67620;51.134;6.548;2024-03-22T08:12:59;30.15;;;19.75;;
78344;SDS011;67620;51.134;6.548;2024-03-22T08:15:28;33.13;;;21.15;;
78344;SDS011;67620;51.134;6.548;2024-03-22T08:17:55;29.67;;;19.48;;
78344;SDS011;67620;51.134;6.548;2024-03-22T08:20:22;27.90;;;19.13;;
78344;SDS011;67620;51.134;6.548;2024-03-22T08:22:48;26.67;;;19.07;;
78344;SDS011;67620;51.134;6.548;2024-03-22T08:25:14;30.27;;;18.67;;
78344;SDS011;67620;51.134;6.548;2024-03-22T08:27:42;26.70;;;18.13;;
78344;SDS011;67620;51.134;6.548;2024-03-22T08:30:09;26.65;;;17.77;;
78344;SDS011;67620;51.134;6.548;2024-03-22T08:32:35;25.65;;;17.55;;
78344;SDS011;67620;51.134;6.548;2024-03-22T08:35:01;26.63;;;17.70;;
78344;SDS011;67620;51.134;6.548;2024-03-22T08:37:26;26.30;;;16.43;;
78344;SDS011;67620;51.134;6.548;2024-03-22T08:39:52;29.92;;;17.30;;
78344;SDS011;67620;51.134;6.548;2024-03-22T08:42:17;25.30;;;16.57;;
78344;SDS011;67620;51.134;6.548;2024-03-22T08:44:43;23.67;;;16.43;;
78344;SDS011;67620;51.134;6.548;2024-03-22T08:47:09;23.55;;;16.02;;
78344;SDS011;67620;51.134;6.548;2024-03-22T08:49:35;23.60;;;15.63;;
78344;SDS011;67620;51.134;6.548;2024-03-22T08:52:01;25.85;;;15.10;;
78344;SDS011;67620;51.134;6.548;2024-03-22T08:54:27;23.70;;;15.47;;
78344;SDS011;67620;51.134;6.548;2024-03-22T08:56:52;19.87;;;14.53;;
78344;SDS011;67620;51.134;6.548;2024-03-22T08:59:18;20.92;;;14.43;;
78344;SDS011;67620;51.134;6.548;2024-03-22T09:01:44;20.35;;;14.77;;
78344;SDS011;67620;51.134;6.548;2024-03-22T09:04:09;23.47;;;14.43;;
78344;SDS011;67620;51.134;6.548;2024-03-22T09:06:35;21.42;;;14.43;;
78344;SDS011;67620;51.134;6.548;2024-03-22T09:09:00;20.30;;;14.80;;
78344;SDS011;67620;51.134;6.548;2024-03-22T09:11:26;23.98;;;14.90;;
78344;SDS011;67620;51.134;6.548;2024-03-22T09:13:52;20.93;;;13.57;;
78344;SDS011;67620;51.134;6.548;2024-03-22T09:16:19;19.37;;;13.10;;
78344;SDS011;67620;51.134;6.548;2024-03-22T09:18:46;18.60;;;13.10;;
78344;SDS011;67620;51.134;6.548;2024-03-22T09:21:12;20.17;;;14.17;;
78344;SDS011;67620;51.134;6.548;2024-03-22T09:23:37;20.40;;;14.38;;
78344;SDS011;67620;51.134;6.548;2024-03-22T09:26:03;19.67;;;13.90;;
78344;SDS011;67620;51.134;6.548;2024-03-22T09:28:29;23.13;;;14.90;;
78344;SDS011;67620;51.134;6.548;2024-03-22T09:30:54;21.13;;;14.40;;
78344;SDS011;67620;51.134;6.548;2024-03-22T09:33:21;20.05;;;13.93;;
78344;SDS011;67620;51.134;6.548;2024-03-22T09:35:47;21.90;;;15.77;;
78344;SDS011;67620;51.134;6.548;2024-03-22T09:38:12;22.45;;;14.80;;
78344;SDS011;67620;51.134;6.548;2024-03-22T09:40:39;22.13;;;15.88;;
78344;SDS011;67620;51.134;6.548;2024-03-22T09:43:04;22.02;;;15.05;;
78344;SDS011;67620;51.134;6.548;2024-03-22T09:45:33;16.35;;;11.88;;
78344;SDS011;67620;51.134;6.548;2024-03-22T09:47:59;21.73;;;12.63;;
78344;SDS011;67620;51.134;6.548;2024-03-22T09:50:25;23.17;;;12.70;;
78344;SDS011;67620;51.134;6.548;2024-03-22T11:06:11;17.23;;;10.35;;
78344;SDS011;67620;51.134;6.548;2024-03-22T11:08:37;19.83;;;11.27;;
78344;SDS011;67620;51.134;6.548;2024-03-22T11:11:09;17.67;;;10.43;;
78344;SDS011;67620;51.134;6.548;2024-03-22T11:13:36;20.45;;;10.43;;
78344;SDS011;67620;51.134;6.548;2024-03-22T11:16:04;19.63;;;10.52;;
78344;SDS011;67620;51.134;6.548;2024-03-22T11:18:29;18.38;;;10.75;;
78344;SDS011;67620;51.134;6.548;2024-03-22T11:20:55;21.23;;;12.70;;
78344;SDS011;67620;51.134;6.548;2024-03-22T11:23:22;19.95;;;11.30;;
78344;SDS011;67620;51.134;6.548;2024-03-22T11:25:47;16.27;;;10.48;;
78344;SDS011;67620;51.134;6.548;2024-03-22T11:28:13;16.08;;;10.43;;
78344;SDS011;67620;51.134;6.548;2024-03-22T11:33:05;17.65;;;10.25;;
78344;SDS011;67620;51.134;6.548;2024-03-22T11:35:31;20.35;;;10.27;;
78344;SDS011;67620;51.134;6.548;2024-03-22T11:37:58;14.55;;;8.48;;
